sensor_id;sensor_type;location;lat;lon;timestamp;P1;durP1;ratioP1;P2;durP2;ratioP2
23573;SDS011;11965;53.640;10.050;2023-04-03T00:00:50;4.28;;;4.19;;
23573;SDS011;11965;53.640;10.050;2023-04-03T00:03:17;4.28;;;4.19;;
23573;SDS011;11965;53.640;10.050;2023-04-03T00:05:45;4.09;;;4.04;;
23573;SDS011;11965;53.640;10.050;2023-04-03T00:08:12;3.82;;;3.74;;
23573;SDS011;11965;53.640;10.050;2023-04-03T00:10:38;3.92;;;3.84;;
23573;SDS011;11965;53.640;10.050;2023-04-03T00:13:06;4.16;;;4.08;;
23573;SDS011;11965;53.640;10.050;2023-04-03T00:15:34;4.24;;;4.16;;
23573;SDS011;11965;53.640;10.050;2023-04-03T00:18:02;3.87;;;3.76;;
23573;SDS011;11965;53.640;10.050;2023-04-03T00:20:30;4.00;;;3.89;;
23573;SDS011;11965;53.640;10.050;2023-04-03T00:22:59;4.08;;;3.97;;
23573;SDS011;11965;53.640;10.050;2023-04-03T00:25:26;4.03;;;3.94;;
23573;SDS011;11965;53.640;10.050;2023-04-03T00:27:53;3.98;;;3.94;;
23573;SDS011;11965;53.640;10.050;2023-04-03T00:30:21;3.97;;;3.89;;
23573;SDS011;11965;53.640;10.050;2023-04-03T00:32:48;3.87;;;3.76;;
23573;SDS011;11965;53.640;10.050;2023-04-03T00:35:16;4.18;;;4.00;;
23573;SDS011;11965;53.640;10.050;2023-04-03T00:37:44;4.09;;;3.95;;
23573;SDS011;11965;53.640;10.050;2023-04-03T00:40:13;3.91;;;3.83;;
23573;SDS011;11965;53.640;10.050;2023-04-03T00:42:42;4.01;;;3.90;;
23573;SDS011;11965;53.640;10.050;2023-04-03T00:45:27;4.12;;;4.02;;
23573;SDS011;11965;53.640;10.050;2023-04-03T00:48:03;3.94;;;3.88;;
23573;SDS011;11965;53.640;10.050;2023-04-03T00:50:34;3.95;;;3.91;;
23573;SDS011;11965;53.640;10.050;2023-04-03T00:53:04;3.92;;;3.90;;
23573;SDS011;11965;53.640;10.050;2023-04-03T00:55:37;4.09;;;4.06;;
23573;SDS011;11965;53.640;10.050;2023-04-03T00:58:05;3.94;;;3.90;;
23573;SDS011;11965;53.640;10.050;2023-04-03T01:00:34;4.17;;;4.09;;
23573;SDS011;11965;53.640;10.050;2023-04-03T01:03:06;3.75;;;3.69;;
23573;SDS011;11965;53.640;10.050;2023-04-03T01:05:34;3.72;;;3.66;;
23573;SDS011;11965;53.640;10.050;2023-04-03T01:08:01;4.19;;;4.14;;
23573;SDS011;11965;53.640;10.050;2023-04-03T01:10:28;4.03;;;3.98;;
23573;SDS011;11965;53.640;10.050;2023-04-03T01:12:58;4.23;;;4.17;;
23573;SDS011;11965;53.640;10.050;2023-04-03T01:15:27;3.88;;;3.84;;
23573;SDS011;11965;53.640;10.050;2023-04-03T01:17:56;3.98;;;3.93;;
23573;SDS011;11965;53.640;10.050;2023-04-03T01:23:32;3.97;;;3.92;;
23573;SDS011;11965;53.640;10.050;2023-04-03T01:26:16;3.99;;;3.94;;
23573;SDS011;11965;53.640;10.050;2023-04-03T01:28:44;4.05;;;4.00;;
23573;SDS011;11965;53.640;10.050;2023-04-03T01:31:13;4.26;;;4.18;;
23573;SDS011;11965;53.640;10.050;2023-04-03T01:33:49;4.19;;;4.16;;
23573;SDS011;11965;53.640;10.050;2023-04-03T01:36:18;4.14;;;4.10;;
23573;SDS011;11965;53.640;10.050;2023-04-03T01:38:46;3.76;;;3.72;;
23573;SDS011;11965;53.640;10.050;2023-04-03T01:41:14;3.85;;;3.80;;
23573;SDS011;11965;53.640;10.050;2023-04-03T01:43:44;4.17;;;4.11;;
23573;SDS011;11965;53.640;10.050;2023-04-03T01:46:11;4.27;;;4.20;;
23573;SDS011;11965;53.640;10.050;2023-04-03T01:48:38;4.03;;;3.97;;
23573;SDS011;11965;53.640;10.050;2023-04-03T01:51:06;4.03;;;3.97;;
23573;SDS011;11965;53.640;10.050;2023-04-03T01:53:33;3.92;;;3.88;;
23573;SDS011;11965;53.640;10.050;2023-04-03T01:56:00;4.22;;;4.15;;
23573;SDS011;11965;53.640;10.050;2023-04-03T01:58:30;4.58;;;4.50;;
23573;SDS011;11965;53.640;10.050;2023-04-03T02:00:57;4.31;;;4.23;;
23573;SDS011;11965;53.640;10.050;2023-04-03T02:03:24;4.18;;;4.09;;
23573;SDS011;11965;53.640;10.050;2023-04-03T02:05:51;4.01;;;3.96;;
23573;SDS011;11965;53.640;10.050;2023-04-03T02:08:20;4.21;;;4.16;;
23573;SDS011;11965;53.640;10.050;2023-04-03T02:10:47;4.61;;;4.55;;
23573;SDS011;11965;53.640;10.050;2023-04-03T02:13:14;4.32;;;4.28;;
23573;SDS011;11965;53.640;10.050;2023-04-03T02:15:44;4.28;;;4.24;;
23573;SDS011;11965;53.640;10.050;2023-04-03T02:18:11;4.13;;;4.10;;
23573;SDS011;11965;53.640;10.050;2023-04-03T02:20:39;3.78;;;3.74;;
23573;SDS011;11965;53.640;10.050;2023-04-03T02:23:08;3.90;;;3.86;;
23573;SDS011;11965;53.640;10.050;2023-04-03T02:25:37;4.36;;;4.32;;
23573;SDS011;11965;53.640;10.050;2023-04-03T02:28:05;4.20;;;4.13;;
23573;SDS011;11965;53.640;10.050;2023-04-03T02:30:32;4.31;;;4.22;;
23573;SDS011;11965;53.640;10.050;2023-04-03T02:32:59;4.19;;;4.03;;
23573;SDS011;11965;53.640;10.050;2023-04-03T02:35:26;4.31;;;4.12;;
23573;SDS011;11965;53.640;10.050;2023-04-03T02:37:55;4.21;;;4.01;;
23573;SDS011;11965;53.640;10.050;2023-04-03T02:40:22;4.29;;;4.14;;
23573;SDS011;11965;53.640;10.050;2023-04-03T02:42:51;4.01;;;3.97;;
23573;SDS011;11965;53.640;10.050;2023-04-03T02:45:18;3.97;;;3.90;;
23573;SDS011;11965;53.640;10.050;2023-04-03T02:47:45;4.14;;;4.08;;
23573;SDS011;11965;53.640;10.050;2023-04-03T02:50:12;3.91;;;3.85;;
23573;SDS011;11965;53.640;10.050;2023-04-03T02:52:39;4.02;;;3.92;;
23573;SDS011;11965;53.640;10.050;2023-04-03T02:55:07;4.08;;;4.01;;
23573;SDS011;11965;53.640;10.050;2023-04-03T02:57:34;3.79;;;3.77;;
23573;SDS011;11965;53.640;10.050;2023-04-03T03:00:02;3.53;;;3.51;;
23573;SDS011;11965;53.640;10.050;2023-04-03T03:02:30;3.77;;;3.74;;
23573;SDS011;11965;53.640;10.050;2023-04-03T03:04:57;4.57;;;4.52;;
23573;SDS011;11965;53.640;10.050;2023-04-03T03:07:24;4.07;;;4.01;;
23573;SDS011;11965;53.640;10.050;2023-04-03T03:09:51;3.93;;;3.86;;
23573;SDS011;11965;53.640;10.050;2023-04-03T03:12:18;3.91;;;3.86;;
23573;SDS011;11965;53.640;10.050;2023-04-03T03:14:46;4.06;;;4.01;;
23573;SDS011;11965;53.640;10.050;2023-04-03T03:17:15;4.24;;;4.19;;
23573;SDS011;11965;53.640;10.050;2023-04-03T03:19:42;4.23;;;4.19;;
23573;SDS011;11965;53.640;10.050;2023-04-03T03:22:11;4.23;;;4.18;;
23573;SDS011;11965;53.640;10.050;2023-04-03T03:24:38;4.22;;;4.17;;
23573;SDS011;11965;53.640;10.050;2023-04-03T03:27:05;4.11;;;4.06;;
23573;SDS011;11965;53.640;10.050;2023-04-03T03:29:32;4.02;;;4.00;;
23573;SDS011;11965;53.640;10.050;2023-04-03T03:31:59;4.37;;;4.34;;
23573;SDS011;11965;53.640;10.050;2023-04-03T03:34:27;4.33;;;4.30;;
23573;SDS011;11965;53.640;10.050;2023-04-03T03:36:54;4.40;;;4.36;;
23573;SDS011;11965;53.640;10.050;2023-04-03T03:39:21;4.14;;;4.11;;
23573;SDS011;11965;53.640;10.050;2023-04-03T03:41:48;4.05;;;4.01;;
23573;SDS011;11965;53.640;10.050;2023-04-03T03:44:15;4.00;;;3.96;;
23573;SDS011;11965;53.640;10.050;2023-04-03T03:46:42;4.08;;;4.05;;
23573;SDS011;11965;53.640;10.050;2023-04-03T03:49:09;4.25;;;4.21;;
23573;SDS011;11965;53.640;10.050;2023-04-03T03:51:38;4.59;;;4.56;;
23573;SDS011;11965;53.640;10.050;2023-04-03T03:54:06;4.49;;;4.48;;
23573;SDS011;11965;53.640;10.050;2023-04-03T03:56:33;4.20;;;4.16;;
23573;SDS011;11965;53.640;10.050;2023-04-03T03:59:00;4.12;;;4.07;;
23573;SDS011;11965;53.640;10.050;2023-04-03T04:01:27;4.12;;;4.11;;
23573;SDS011;11965;53.640;10.050;2023-04-03T04:03:55;4.35;;;4.33;;
23573;SDS011;11965;53.640;10.050;2023-04-03T04:06:25;4.44;;;4.43;;
23573;SDS011;11965;53.640;10.050;2023-04-03T04:08:57;4.46;;;4.45;;
23573;SDS011;11965;53.640;10.050;2023-04-03T04:11:24;4.52;;;4.51;;
23573;SDS011;11965;53.640;10.050;2023-04-03T04:13:56;4.36;;;4.35;;
23573;SDS011;11965;53.640;10.050;2023-04-03T04:16:25;4.83;;;4.82;;
23573;SDS011;11965;53.640;10.050;2023-04-03T04:18:54;4.76;;;4.76;;
23573;SDS011;11965;53.640;10.050;2023-04-03T04:21:22;4.76;;;4.75;;
23573;SDS011;11965;53.640;10.050;2023-04-03T04:23:51;4.88;;;4.88;;
23573;SDS011;11965;53.640;10.050;2023-04-03T04:26:20;4.37;;;4.36;;
23573;SDS011;11965;53.640;10.050;2023-04-03T04:28:47;4.57;;;4.56;;
23573;SDS011;11965;53.640;10.050;2023-04-03T04:31:14;4.83;;;4.80;;
23573;SDS011;11965;53.640;10.050;2023-04-03T04:33:41;4.86;;;4.84;;
23573;SDS011;11965;53.640;10.050;2023-04-03T04:36:10;4.82;;;4.81;;
23573;SDS011;11965;53.640;10.050;2023-04-03T04:38:37;5.35;;;5.31;;
23573;SDS011;11965;53.640;10.050;2023-04-03T04:41:05;4.82;;;4.78;;
23573;SDS011;11965;53.640;10.050;2023-04-03T04:43:33;5.09;;;5.06;;
23573;SDS011;11965;53.640;10.050;2023-04-03T04:46:01;4.84;;;4.83;;
23573;SDS011;11965;53.640;10.050;2023-04-03T04:48:31;4.62;;;4.62;;
23573;SDS011;11965;53.640;10.050;2023-04-03T04:50:59;5.01;;;5.01;;
23573;SDS011;11965;53.640;10.050;2023-04-03T04:53:26;5.11;;;5.10;;
23573;SDS011;11965;53.640;10.050;2023-04-03T04:55:52;5.12;;;5.12;;
23573;SDS011;11965;53.640;10.050;2023-04-03T04:58:20;5.37;;;5.37;;
23573;SDS011;11965;53.640;10.050;2023-04-03T05:00:48;5.18;;;5.18;;
23573;SDS011;11965;53.640;10.050;2023-04-03T05:03:15;5.69;;;5.67;;
23573;SDS011;11965;53.640;10.050;2023-04-03T05:05:43;5.65;;;5.62;;
23573;SDS011;11965;53.640;10.050;2023-04-03T05:08:10;8.16;;;8.11;;
23573;SDS011;11965;53.640;10.050;2023-04-03T05:10:39;11.11;;;10.96;;
23573;SDS011;11965;53.640;10.050;2023-04-03T05:13:07;12.40;;;12.22;;
23573;SDS011;11965;53.640;10.050;2023-04-03T05:15:35;11.54;;;11.41;;
23573;SDS011;11965;53.640;10.050;2023-04-03T05:18:04;11.14;;;10.99;;
23573;SDS011;11965;53.640;10.050;2023-04-03T05:20:31;10.64;;;10.40;;
23573;SDS011;11965;53.640;10.050;2023-04-03T05:22:58;11.22;;;11.08;;
23573;SDS011;11965;53.640;10.050;2023-04-03T05:25:25;10.78;;;10.68;;
23573;SDS011;11965;53.640;10.050;2023-04-03T05:27:52;10.22;;;10.07;;
23573;SDS011;11965;53.640;10.050;2023-04-03T05:30:19;9.37;;;9.27;;
23573;SDS011;11965;53.640;10.050;2023-04-03T05:32:46;8.38;;;8.32;;
23573;SDS011;11965;53.640;10.050;2023-04-03T05:35:19;7.89;;;7.80;;
23573;SDS011;11965;53.640;10.050;2023-04-03T05:37:49;7.65;;;7.59;;
23573;SDS011;11965;53.640;10.050;2023-04-03T05:40:17;8.01;;;7.94;;
23573;SDS011;11965;53.640;10.050;2023-04-03T05:42:47;7.12;;;7.06;;
23573;SDS011;11965;53.640;10.050;2023-04-03T05:45:16;6.53;;;6.51;;
23573;SDS011;11965;53.640;10.050;2023-04-03T05:47:43;6.74;;;6.71;;
23573;SDS011;11965;53.640;10.050;2023-04-03T05:50:10;6.65;;;6.63;;
23573;SDS011;11965;53.640;10.050;2023-04-03T05:52:40;6.10;;;6.08;;
23573;SDS011;11965;53.640;10.050;2023-04-03T05:55:11;6.11;;;6.08;;
23573;SDS011;11965;53.640;10.050;2023-04-03T05:57:39;5.92;;;5.91;;
23573;SDS011;11965;53.640;10.050;2023-04-03T06:00:07;5.86;;;5.86;;
23573;SDS011;11965;53.640;10.050;2023-04-03T06:02:39;6.13;;;6.11;;
23573;SDS011;11965;53.640;10.050;2023-04-03T06:05:10;5.70;;;5.68;;
23573;SDS011;11965;53.640;10.050;2023-04-03T06:07:39;5.92;;;5.90;;
23573;SDS011;11965;53.640;10.050;2023-04-03T06:10:10;6.07;;;6.06;;
23573;SDS011;11965;53.640;10.050;2023-04-03T06:12:38;6.12;;;6.12;;
23573;SDS011;11965;53.640;10.050;2023-04-03T06:15:06;5.83;;;5.82;;
23573;SDS011;11965;53.640;10.050;2023-04-03T06:17:35;6.10;;;6.10;;
23573;SDS011;11965;53.640;10.050;2023-04-03T06:20:02;6.08;;;6.07;;
23573;SDS011;11965;53.640;10.050;2023-04-03T06:22:30;6.10;;;6.09;;
23573;SDS011;11965;53.640;10.050;2023-04-03T06:24:58;5.68;;;5.67;;
23573;SDS011;11965;53.640;10.050;2023-04-03T06:27:25;5.87;;;5.85;;
23573;SDS011;11965;53.640;10.050;2023-04-03T06:29:53;5.31;;;5.27;;
23573;SDS011;11965;53.640;10.050;2023-04-03T06:32:20;5.23;;;5.17;;
23573;SDS011;11965;53.640;10.050;2023-04-03T06:34:47;4.80;;;4.76;;
23573;SDS011;11965;53.640;10.050;2023-04-03T06:37:14;5.19;;;5.13;;
23573;SDS011;11965;53.640;10.050;2023-04-03T06:39:42;5.03;;;4.98;;
23573;SDS011;11965;53.640;10.050;2023-04-03T06:42:11;4.95;;;4.92;;
23573;SDS011;11965;53.640;10.050;2023-04-03T06:44:47;4.61;;;4.57;;
23573;SDS011;11965;53.640;10.050;2023-04-03T06:47:14;4.62;;;4.58;;
23573;SDS011;11965;53.640;10.050;2023-04-03T06:49:42;4.43;;;4.38;;
23573;SDS011;11965;53.640;10.050;2023-04-03T06:52:10;3.86;;;3.79;;
23573;SDS011;11965;53.640;10.050;2023-04-03T06:54:38;3.80;;;3.74;;
23573;SDS011;11965;53.640;10.050;2023-04-03T06:57:05;3.52;;;3.49;;
23573;SDS011;11965;53.640;10.050;2023-04-03T06:59:34;3.59;;;3.57;;
23573;SDS011;11965;53.640;10.050;2023-04-03T07:02:02;3.92;;;3.90;;
23573;SDS011;11965;53.640;10.050;2023-04-03T07:04:29;4.03;;;3.99;;
23573;SDS011;11965;53.640;10.050;2023-04-03T07:06:56;3.79;;;3.75;;
23573;SDS011;11965;53.640;10.050;2023-04-03T07:09:23;4.06;;;4.01;;
23573;SDS011;11965;53.640;10.050;2023-04-03T07:11:50;3.80;;;3.74;;
23573;SDS011;11965;53.640;10.050;2023-04-03T07:14:16;3.95;;;3.87;;
23573;SDS011;11965;53.640;10.050;2023-04-03T07:16:45;4.09;;;3.98;;
23573;SDS011;11965;53.640;10.050;2023-04-03T07:19:11;3.71;;;3.61;;
23573;SDS011;11965;53.640;10.050;2023-04-03T07:21:39;3.36;;;3.24;;
23573;SDS011;11965;53.640;10.050;2023-04-03T07:24:07;3.15;;;3.02;;
23573;SDS011;11965;53.640;10.050;2023-04-03T07:26:34;3.08;;;2.98;;
23573;SDS011;11965;53.640;10.050;2023-04-03T07:29:00;2.98;;;2.90;;
23573;SDS011;11965;53.640;10.050;2023-04-03T07:31:27;2.91;;;2.82;;
23573;SDS011;11965;53.640;10.050;2023-04-03T07:33:55;3.35;;;3.22;;
23573;SDS011;11965;53.640;10.050;2023-04-03T07:36:22;2.83;;;2.75;;
23573;SDS011;11965;53.640;10.050;2023-04-03T07:38:50;2.89;;;2.81;;
23573;SDS011;11965;53.640;10.050;2023-04-03T07:41:17;2.64;;;2.57;;
23573;SDS011;11965;53.640;10.050;2023-04-03T07:43:46;3.05;;;2.89;;
23573;SDS011;11965;53.640;10.050;2023-04-03T07:46:15;2.67;;;2.54;;
23573;SDS011;11965;53.640;10.050;2023-04-03T07:48:42;2.75;;;2.60;;
23573;SDS011;11965;53.640;10.050;2023-04-03T07:51:11;2.21;;;2.09;;
23573;SDS011;11965;53.640;10.050;2023-04-03T07:53:39;2.48;;;2.33;;
23573;SDS011;11965;53.640;10.050;2023-04-03T07:56:06;3.16;;;2.97;;
23573;SDS011;11965;53.640;10.050;2023-04-03T07:58:34;3.04;;;2.85;;
23573;SDS011;11965;53.640;10.050;2023-04-03T08:01:02;3.11;;;2.97;;
23573;SDS011;11965;53.640;10.050;2023-04-03T08:03:29;3.27;;;3.08;;
23573;SDS011;11965;53.640;10.050;2023-04-03T08:06:00;3.46;;;3.23;;
23573;SDS011;11965;53.640;10.050;2023-04-03T08:08:31;3.06;;;2.91;;
23573;SDS011;11965;53.640;10.050;2023-04-03T08:10:58;2.88;;;2.73;;
23573;SDS011;11965;53.640;10.050;2023-04-03T08:13:27;3.12;;;2.95;;
23573;SDS011;11965;53.640;10.050;2023-04-03T08:15:55;3.08;;;2.92;;
23573;SDS011;11965;53.640;10.050;2023-04-03T08:18:24;3.03;;;2.89;;
23573;SDS011;11965;53.640;10.050;2023-04-03T08:20:51;3.11;;;2.95;;
23573;SDS011;11965;53.640;10.050;2023-04-03T08:23:18;2.42;;;2.30;;
23573;SDS011;11965;53.640;10.050;2023-04-03T08:25:47;2.55;;;2.45;;
23573;SDS011;11965;53.640;10.050;2023-04-03T08:28:14;2.49;;;2.40;;
23573;SDS011;11965;53.640;10.050;2023-04-03T08:30:41;2.42;;;2.33;;
23573;SDS011;11965;53.640;10.050;2023-04-03T08:33:09;2.01;;;1.94;;
23573;SDS011;11965;53.640;10.050;2023-04-03T08:35:38;2.14;;;2.07;;
23573;SDS011;11965;53.640;10.050;2023-04-03T08:38:05;2.10;;;2.00;;
23573;SDS011;11965;53.640;10.050;2023-04-03T08:40:33;1.97;;;1.85;;
23573;SDS011;11965;53.640;10.050;2023-04-03T08:43:04;1.69;;;1.57;;
23573;SDS011;11965;53.640;10.050;2023-04-03T08:45:57;2.42;;;2.25;;
23573;SDS011;11965;53.640;10.050;2023-04-03T08:48:32;2.32;;;2.15;;
23573;SDS011;11965;53.640;10.050;2023-04-03T08:51:04;1.81;;;1.68;;
23573;SDS011;11965;53.640;10.050;2023-04-03T08:53:42;1.74;;;1.60;;
23573;SDS011;11965;53.640;10.050;2023-04-03T08:56:15;1.88;;;1.72;;
23573;SDS011;11965;53.640;10.050;2023-04-03T08:58:47;1.92;;;1.75;;
23573;SDS011;11965;53.640;10.050;2023-04-03T09:01:21;1.98;;;1.78;;
23573;SDS011;11965;53.640;10.050;2023-04-03T09:03:53;1.69;;;1.54;;
23573;SDS011;11965;53.640;10.050;2023-04-03T09:06:21;1.68;;;1.54;;
23573;SDS011;11965;53.640;10.050;2023-04-03T09:08:57;1.67;;;1.52;;
23573;SDS011;11965;53.640;10.050;2023-04-03T09:11:41;1.67;;;1.53;;
23573;SDS011;11965;53.640;10.050;2023-04-03T09:14:21;1.98;;;1.79;;
23573;SDS011;11965;53.640;10.050;2023-04-03T09:16:59;1.79;;;1.60;;
23573;SDS011;11965;53.640;10.050;2023-04-03T09:19:34;1.49;;;1.33;;
23573;SDS011;11965;53.640;10.050;2023-04-03T09:22:16;1.53;;;1.39;;
23573;SDS011;11965;53.640;10.050;2023-04-03T09:24:47;1.44;;;1.32;;
23573;SDS011;11965;53.640;10.050;2023-04-03T09:27:22;1.60;;;1.45;;
23573;SDS011;11965;53.640;10.050;2023-04-03T09:29:52;1.62;;;1.46;;
23573;SDS011;11965;53.640;10.050;2023-04-03T09:32:23;1.51;;;1.38;;
23573;SDS011;11965;53.640;10.050;2023-04-03T09:34:55;1.73;;;1.60;;
23573;SDS011;11965;53.640;10.050;2023-04-03T09:37:36;1.46;;;1.36;;
23573;SDS011;11965;53.640;10.050;2023-04-03T09:40:12;1.56;;;1.47;;
23573;SDS011;11965;53.640;10.050;2023-04-03T09:42:55;1.55;;;1.48;;
23573;SDS011;11965;53.640;10.050;2023-04-03T09:45:25;1.08;;;1.02;;
23573;SDS011;11965;53.640;10.050;2023-04-03T09:50:56;1.40;;;1.31;;
23573;SDS011;11965;53.640;10.050;2023-04-03T09:53:30;1.62;;;1.52;;
23573;SDS011;11965;53.640;10.050;2023-04-03T09:56:03;1.65;;;1.53;;
23573;SDS011;11965;53.640;10.050;2023-04-03T09:58:45;1.43;;;1.33;;
23573;SDS011;11965;53.640;10.050;2023-04-03T10:01:22;1.62;;;1.50;;
23573;SDS011;11965;53.640;10.050;2023-04-03T10:04:02;1.41;;;1.31;;
23573;SDS011;11965;53.640;10.050;2023-04-03T10:06:36;1.78;;;1.67;;
23573;SDS011;11965;53.640;10.050;2023-04-03T10:09:10;1.57;;;1.49;;
23573;SDS011;11965;53.640;10.050;2023-04-03T10:11:59;1.28;;;1.21;;
23573;SDS011;11965;53.640;10.050;2023-04-03T10:14:30;1.51;;;1.44;;
23573;SDS011;11965;53.640;10.050;2023-04-03T10:17:01;1.49;;;1.41;;
23573;SDS011;11965;53.640;10.050;2023-04-03T10:19:39;1.63;;;1.52;;
23573;SDS011;11965;53.640;10.050;2023-04-03T10:22:21;1.58;;;1.48;;
23573;SDS011;11965;53.640;10.050;2023-04-03T10:25:02;1.66;;;1.58;;
23573;SDS011;11965;53.640;10.050;2023-04-03T10:27:42;1.42;;;1.34;;
23573;SDS011;11965;53.640;10.050;2023-04-03T10:30:22;1.85;;;1.73;;
23573;SDS011;11965;53.640;10.050;2023-04-03T10:33:07;1.67;;;1.56;;
23573;SDS011;11965;53.640;10.050;2023-04-03T10:35:49;1.53;;;1.46;;
23573;SDS011;11965;53.640;10.050;2023-04-03T10:38:38;1.66;;;1.56;;
23573;SDS011;11965;53.640;10.050;2023-04-03T10:41:16;1.62;;;1.53;;
23573;SDS011;11965;53.640;10.050;2023-04-03T10:43:54;1.81;;;1.73;;
23573;SDS011;11965;53.640;10.050;2023-04-03T10:46:33;1.77;;;1.68;;
23573;SDS011;11965;53.640;10.050;2023-04-03T10:49:15;1.83;;;1.76;;
23573;SDS011;11965;53.640;10.050;2023-04-03T10:51:56;1.95;;;1.89;;
23573;SDS011;11965;53.640;10.050;2023-04-03T10:54:33;1.73;;;1.69;;
23573;SDS011;11965;53.640;10.050;2023-04-03T10:57:06;1.79;;;1.77;;
23573;SDS011;11965;53.640;10.050;2023-04-03T10:59:36;1.83;;;1.82;;
23573;SDS011;11965;53.640;10.050;2023-04-03T11:02:11;1.81;;;1.80;;
23573;SDS011;11965;53.640;10.050;2023-04-03T11:04:52;2.05;;;2.03;;
23573;SDS011;11965;53.640;10.050;2023-04-03T11:07:26;2.10;;;2.07;;
23573;SDS011;11965;53.640;10.050;2023-04-03T11:10:00;2.10;;;2.07;;
23573;SDS011;11965;53.640;10.050;2023-04-03T11:12:34;1.82;;;1.78;;
23573;SDS011;11965;53.640;10.050;2023-04-03T11:15:11;2.09;;;2.04;;
23573;SDS011;11965;53.640;10.050;2023-04-03T11:17:43;2.14;;;2.09;;
23573;SDS011;11965;53.640;10.050;2023-04-03T11:20:20;2.00;;;1.96;;
23573;SDS011;11965;53.640;10.050;2023-04-03T11:22:58;2.07;;;2.02;;
23573;SDS011;11965;53.640;10.050;2023-04-03T11:25:30;1.90;;;1.86;;
23573;SDS011;11965;53.640;10.050;2023-04-03T11:28:02;1.76;;;1.72;;
23573;SDS011;11965;53.640;10.050;2023-04-03T11:30:32;1.86;;;1.82;;
23573;SDS011;11965;53.640;10.050;2023-04-03T11:33:13;1.67;;;1.63;;
23573;SDS011;11965;53.640;10.050;2023-04-03T11:35:55;1.53;;;1.49;;
23573;SDS011;11965;53.640;10.050;2023-04-03T11:38:30;1.31;;;1.27;;
23573;SDS011;11965;53.640;10.050;2023-04-03T11:41:04;1.54;;;1.50;;
23573;SDS011;11965;53.640;10.050;2023-04-03T11:43:37;1.54;;;1.50;;
23573;SDS011;11965;53.640;10.050;2023-04-03T11:46:07;1.51;;;1.47;;
23573;SDS011;11965;53.640;10.050;2023-04-03T11:48:46;1.36;;;1.31;;
23573;SDS011;11965;53.640;10.050;2023-04-03T12:03:35;1.79;;;1.72;;
23573;SDS011;11965;53.640;10.050;2023-04-03T12:12:33;1.82;;;1.76;;
23573;SDS011;11965;53.640;10.050;2023-04-03T12:15:17;1.87;;;1.81;;
23573;SDS011;11965;53.640;10.050;2023-04-03T12:17:47;2.08;;;2.01;;
23573;SDS011;11965;53.640;10.050;2023-04-03T12:23:26;2.05;;;1.97;;
23573;SDS011;11965;53.640;10.050;2023-04-03T12:26:01;1.59;;;1.53;;
23573;SDS011;11965;53.640;10.050;2023-04-03T12:28:39;1.45;;;1.40;;
23573;SDS011;11965;53.640;10.050;2023-04-03T12:31:08;1.33;;;1.29;;
23573;SDS011;11965;53.640;10.050;2023-04-03T12:33:41;1.49;;;1.44;;
23573;SDS011;11965;53.640;10.050;2023-04-03T12:36:26;1.52;;;1.47;;
23573;SDS011;11965;53.640;10.050;2023-04-03T12:39:25;1.38;;;1.34;;
23573;SDS011;11965;53.640;10.050;2023-04-03T12:42:16;1.40;;;1.36;;
23573;SDS011;11965;53.640;10.050;2023-04-03T12:44:58;1.42;;;1.37;;
23573;SDS011;11965;53.640;10.050;2023-04-03T12:47:36;1.69;;;1.61;;
23573;SDS011;11965;53.640;10.050;2023-04-03T12:50:13;1.53;;;1.47;;
23573;SDS011;11965;53.640;10.050;2023-04-03T12:52:50;1.43;;;1.37;;
23573;SDS011;11965;53.640;10.050;2023-04-03T12:55:23;1.52;;;1.45;;
23573;SDS011;11965;53.640;10.050;2023-04-03T12:57:53;1.66;;;1.58;;
23573;SDS011;11965;53.640;10.050;2023-04-03T13:00:30;1.60;;;1.54;;
23573;SDS011;11965;53.640;10.050;2023-04-03T13:03:00;1.70;;;1.64;;
23573;SDS011;11965;53.640;10.050;2023-04-03T13:05:30;2.04;;;1.96;;
23573;SDS011;11965;53.640;10.050;2023-04-03T13:07:59;1.73;;;1.67;;
23573;SDS011;11965;53.640;10.050;2023-04-03T13:10:30;1.56;;;1.51;;
23573;SDS011;11965;53.640;10.050;2023-04-03T13:13:06;1.79;;;1.74;;
23573;SDS011;11965;53.640;10.050;2023-04-03T13:15:41;1.39;;;1.34;;
23573;SDS011;11965;53.640;10.050;2023-04-03T13:18:21;1.68;;;1.61;;
23573;SDS011;11965;53.640;10.050;2023-04-03T13:20:49;1.63;;;1.58;;
23573;SDS011;11965;53.640;10.050;2023-04-03T13:23:17;1.68;;;1.63;;
23573;SDS011;11965;53.640;10.050;2023-04-03T13:25:48;1.67;;;1.63;;
23573;SDS011;11965;53.640;10.050;2023-04-03T13:28:20;1.52;;;1.49;;
23573;SDS011;11965;53.640;10.050;2023-04-03T13:30:57;1.82;;;1.78;;
23573;SDS011;11965;53.640;10.050;2023-04-03T13:33:29;1.95;;;1.91;;
23573;SDS011;11965;53.640;10.050;2023-04-03T13:36:00;1.61;;;1.57;;
23573;SDS011;11965;53.640;10.050;2023-04-03T13:38:31;1.57;;;1.53;;
23573;SDS011;11965;53.640;10.050;2023-04-03T13:41:00;1.80;;;1.75;;
23573;SDS011;11965;53.640;10.050;2023-04-03T13:43:31;1.81;;;1.76;;
23573;SDS011;11965;53.640;10.050;2023-04-03T13:46:03;1.72;;;1.68;;
23573;SDS011;11965;53.640;10.050;2023-04-03T13:48:49;1.62;;;1.60;;
23573;SDS011;11965;53.640;10.050;2023-04-03T13:51:18;1.75;;;1.72;;
23573;SDS011;11965;53.640;10.050;2023-04-03T13:53:52;2.06;;;2.01;;
23573;SDS011;11965;53.640;10.050;2023-04-03T13:56:26;1.82;;;1.78;;
23573;SDS011;11965;53.640;10.050;2023-04-03T13:59:02;2.13;;;2.08;;
23573;SDS011;11965;53.640;10.050;2023-04-03T14:01:39;1.82;;;1.77;;
23573;SDS011;11965;53.640;10.050;2023-04-03T14:04:10;1.72;;;1.68;;
23573;SDS011;11965;53.640;10.050;2023-04-03T14:06:42;1.72;;;1.68;;
23573;SDS011;11965;53.640;10.050;2023-04-03T14:09:09;1.83;;;1.77;;
23573;SDS011;11965;53.640;10.050;2023-04-03T14:11:37;1.72;;;1.68;;
23573;SDS011;11965;53.640;10.050;2023-04-03T14:14:11;1.72;;;1.68;;
23573;SDS011;11965;53.640;10.050;2023-04-03T14:16:42;1.85;;;1.81;;
23573;SDS011;11965;53.640;10.050;2023-04-03T14:19:16;1.72;;;1.68;;
23573;SDS011;11965;53.640;10.050;2023-04-03T14:21:47;1.75;;;1.72;;
23573;SDS011;11965;53.640;10.050;2023-04-03T14:24:14;1.87;;;1.81;;
23573;SDS011;11965;53.640;10.050;2023-04-03T14:26:42;1.98;;;1.93;;
23573;SDS011;11965;53.640;10.050;2023-04-03T14:29:12;1.98;;;1.95;;
23573;SDS011;11965;53.640;10.050;2023-04-03T14:31:39;1.89;;;1.87;;
23573;SDS011;11965;53.640;10.050;2023-04-03T14:34:07;2.17;;;2.15;;
23573;SDS011;11965;53.640;10.050;2023-04-03T14:36:35;1.98;;;1.94;;
23573;SDS011;11965;53.640;10.050;2023-04-03T14:39:03;2.19;;;2.12;;
23573;SDS011;11965;53.640;10.050;2023-04-03T14:41:31;2.03;;;1.95;;
23573;SDS011;11965;53.640;10.050;2023-04-03T14:43:58;1.93;;;1.85;;
23573;SDS011;11965;53.640;10.050;2023-04-03T14:46:28;2.16;;;2.07;;
23573;SDS011;11965;53.640;10.050;2023-04-03T14:48:58;2.10;;;2.03;;
23573;SDS011;11965;53.640;10.050;2023-04-03T14:51:25;2.19;;;2.13;;
23573;SDS011;11965;53.640;10.050;2023-04-03T14:53:52;2.86;;;2.78;;
23573;SDS011;11965;53.640;10.050;2023-04-03T14:56:21;2.05;;;2.00;;
23573;SDS011;11965;53.640;10.050;2023-04-03T14:58:52;2.17;;;2.13;;
23573;SDS011;11965;53.640;10.050;2023-04-03T15:01:23;2.12;;;2.07;;
23573;SDS011;11965;53.640;10.050;2023-04-03T15:03:52;2.18;;;2.12;;
23573;SDS011;11965;53.640;10.050;2023-04-03T15:06:19;2.31;;;2.27;;
23573;SDS011;11965;53.640;10.050;2023-04-03T15:08:47;2.01;;;1.98;;
23573;SDS011;11965;53.640;10.050;2023-04-03T15:11:14;2.24;;;2.21;;
23573;SDS011;11965;53.640;10.050;2023-04-03T15:13:42;2.00;;;1.96;;
23573;SDS011;11965;53.640;10.050;2023-04-03T15:16:12;2.16;;;2.13;;
23573;SDS011;11965;53.640;10.050;2023-04-03T15:18:44;2.43;;;2.37;;
23573;SDS011;11965;53.640;10.050;2023-04-03T15:21:13;2.03;;;1.99;;